Time;durP1;ratioP1;P1;durP2;ratioP2;P2;SDS_P1;SDS_P2;PMS_P1;PMS_P2;Temp;Humidity;BMP_temperature;BMP_pressure;BME280_temperature;BME280_humidity;BME280_pressure;Samples;Min_cycle;Max_cycle;Signal;HPM_P1;HPM_P2
2022/03/06 00:01:51;;;;;;;8.88;5.70;;;-0.20;99.90;;;;;;6189094;23;20051;-87
2022/03/06 00:04:17;;;;;;;10.15;6.47;;;-0.70;99.90;;;;;;6216162;23;20016;-86
2022/03/06 00:06:42;;;;;;;9.60;6.40;;;0.00;99.90;;;;;;6215839;23;20051;-87
2022/03/06 00:09:08;;;;;;;9.32;5.88;;;-0.10;99.90;;;;;;6216240;23;20012;-87
2022/03/06 00:11:37;;;;;;;8.60;5.25;;;0.00;99.90;;;;;;6189133;23;20016;-87
2022/03/06 00:14:03;;;;;;;9.75;4.95;;;0.80;99.90;;;;;;6164249;23;20443;-87
2022/03/06 00:16:28;;;;;;;10.32;5.72;;;0.10;99.90;;;;;;6188805;23;20055;-83
2022/03/06 00:18:54;;;;;;;9.95;4.82;;;0.10;99.90;;;;;;6216239;23;20020;-87
2022/03/06 00:21:20;;;;;;;8.05;4.38;;;0.20;99.90;;;;;;6215884;23;20101;-87
2022/03/06 00:23:45;;;;;;;6.30;3.78;;;-0.10;99.90;;;;;;6188988;23;20020;-87
2022/03/06 00:26:11;;;;;;;7.30;3.45;;;0.90;99.90;;;;;;6164325;23;20021;-87
2022/03/06 00:28:37;;;;;;;9.20;4.95;;;2.00;99.90;;;;;;6163993;23;20013;-87
2022/03/06 00:31:03;;;;;;;8.93;4.38;;;0.80;99.90;;;;;;6189472;23;20009;-87
2022/03/06 00:33:29;;;;;;;9.55;4.57;;;0.40;99.90;;;;;;6188503;23;20027;-84
2022/03/06 00:35:54;;;;;;;7.65;5.10;;;0.50;99.90;;;;;;6215996;23;20087;-86
2022/03/06 00:38:20;;;;;;;7.40;3.85;;;0.20;99.90;;;;;;6215429;23;20019;-88
2022/03/06 00:40:46;;;;;;;6.53;3.65;;;0.50;99.90;;;;;;6188896;23;20446;-86
2022/03/06 00:43:12;;;;;;;7.03;3.60;;;0.60;99.90;;;;;;6215814;23;20052;-87
2022/03/06 00:45:38;;;;;;;7.30;3.40;;;0.60;99.90;;;;;;6215852;23;20017;-86
2022/03/06 00:48:04;;;;;;;6.38;3.78;;;0.80;99.90;;;;;;6188844;23;20092;-86
2022/03/06 00:50:29;;;;;;;10.43;3.42;;;0.60;99.90;;;;;;6215755;23;20096;-85
2022/03/06 00:52:57;;;;;;;8.13;3.72;;;0.70;99.90;;;;;;6188908;23;20095;-87
2022/03/06 00:55:24;;;;;;;6.18;3.00;;;0.70;99.90;;;;;;6215691;23;20079;-87
2022/03/06 00:57:49;;;;;;;7.80;3.80;;;0.80;99.90;;;;;;6214702;23;20031;-87
2022/03/06 01:00:15;;;;;;;8.48;3.50;;;1.20;99.90;;;;;;6215424;23;20068;-86
2022/03/06 01:02:41;;;;;;;8.05;2.92;;;0.80;99.90;;;;;;6215310;23;20020;-86
2022/03/06 01:05:07;;;;;;;6.35;3.60;;;0.80;99.90;;;;;;6215626;23;20017;-85
2022/03/06 01:07:33;;;;;;;5.40;3.17;;;0.80;99.90;;;;;;6215719;23;20040;-87
2022/03/06 01:09:58;;;;;;;4.65;2.85;;;0.90;99.90;;;;;;6187989;23;20017;-82
2022/03/06 01:12:24;;;;;;;6.95;2.83;;;0.90;99.90;;;;;;6215452;23;20024;-86
2022/03/06 01:14:50;;;;;;;4.13;2.35;;;0.90;99.90;;;;;;6188566;23;20398;-86
2022/03/06 01:17:16;;;;;;;6.38;3.20;;;0.80;99.90;;;;;;6215042;23;20023;-87
2022/03/06 01:19:42;;;;;;;5.97;2.63;;;0.80;99.90;;;;;;6188230;23;20083;-86
2022/03/06 01:22:07;;;;;;;7.15;3.65;;;0.80;99.90;;;;;;6215427;23;20044;-85
2022/03/06 01:24:33;;;;;;;7.60;3.22;;;1.70;99.90;;;;;;6215561;23;20013;-86
2022/03/06 01:26:59;;;;;;;7.45;3.75;;;0.30;99.90;;;;;;6188173;23;20016;-85
2022/03/06 01:29:24;;;;;;;9.15;3.95;;;0.80;99.90;;;;;;6215526;23;20017;-84
2022/03/06 01:31:50;;;;;;;8.38;3.78;;;0.80;99.90;;;;;;6214857;23;20092;-86
2022/03/06 01:34:16;;;;;;;6.90;2.95;;;0.80;99.90;;;;;;6188461;23;20043;-84
2022/03/06 01:36:42;;;;;;;6.70;3.35;;;0.80;99.90;;;;;;6188334;23;20451;-84
2022/03/06 01:39:07;;;;;;;6.85;3.30;;;0.70;99.90;;;;;;6188458;23;20011;-85
2022/03/06 01:41:35;;;;;;;5.45;3.33;;;0.80;99.90;;;;;;6214769;23;20017;-83
2022/03/06 01:44:01;;;;;;;6.63;3.63;;;0.90;99.90;;;;;;6215359;23;20009;-86
2022/03/06 01:46:26;;;;;;;7.13;3.10;;;0.90;99.90;;;;;;6215504;23;20028;-85
2022/03/06 01:48:52;;;;;;;5.18;2.90;;;1.50;99.90;;;;;;6215384;23;20012;-83
2022/03/06 01:51:18;;;;;;;3.95;2.13;;;0.70;99.90;;;;;;6215066;23;20078;-83
2022/03/06 01:53:44;;;;;;;4.68;2.53;;;0.90;99.90;;;;;;6188134;23;20027;-81
2022/03/06 01:56:12;;;;;;;5.63;2.50;;;0.70;99.90;;;;;;6215094;23;20092;-83
2022/03/06 01:58:38;;;;;;;5.07;2.58;;;1.70;99.90;;;;;;6214560;23;20067;-85
2022/03/06 02:01:04;;;;;;;9.07;3.03;;;1.10;99.90;;;;;;6215087;23;20071;-81
2022/03/06 02:03:30;;;;;;;8.10;3.13;;;1.50;99.90;;;;;;6214818;23;20012;-84
2022/03/06 02:05:55;;;;;;;13.88;2.63;;;1.30;99.90;;;;;;6215327;23;20051;-83
2022/03/06 02:08:21;;;;;;;5.25;2.53;;;0.90;99.90;;;;;;6214816;23;20020;-82
2022/03/06 02:10:49;;;;;;;3.40;2.10;;;0.90;99.90;;;;;;6214876;23;20020;-82
2022/03/06 02:13:15;;;;;;;4.80;2.50;;;0.50;99.90;;;;;;6214331;23;20021;-81
2022/03/06 02:15:41;;;;;;;9.13;3.10;;;0.90;99.90;;;;;;6163794;23;20023;-85
2022/03/06 02:18:07;;;;;;;5.68;2.63;;;0.80;99.90;;;;;;6188322;23;20509;-87
2022/03/06 02:20:34;;;;;;;3.58;2.00;;;1.10;99.90;;;;;;6215368;23;20017;-87
2022/03/06 02:23:00;;;;;;;5.35;2.85;;;1.30;99.90;;;;;;6188236;23;20028;-87
2022/03/06 02:25:29;;;;;;;4.40;2.70;;;0.80;99.90;;;;;;6214755;23;20013;-86
2022/03/06 02:27:57;;;;;;;5.07;2.67;;;0.80;99.90;;;;;;6163334;23;20035;-87
2022/03/06 02:30:29;;;;;;;4.25;2.45;;;1.80;99.90;;;;;;6215284;23;20317;-87
2022/03/06 02:32:59;;;;;;;5.00;2.97;;;1.40;99.90;;;;;;6215104;23;20039;-85
2022/03/06 02:35:26;;;;;;;7.15;3.15;;;0.90;99.90;;;;;;6187968;23;20017;-87
2022/03/06 02:37:52;;;;;;;4.38;2.28;;;1.40;99.90;;;;;;6188426;23;20024;-87
2022/03/06 02:40:20;;;;;;;6.68;2.47;;;0.80;99.90;;;;;;6189292;23;20020;-86
2022/03/06 02:42:47;;;;;;;7.88;3.22;;;1.00;99.90;;;;;;6216530;23;20020;-87
2022/03/06 02:45:15;;;;;;;4.18;2.38;;;2.50;99.90;;;;;;6216873;23;20017;-86
2022/03/06 02:47:42;;;;;;;7.13;2.97;;;1.10;99.90;;;;;;6189703;23;20020;-85
2022/03/06 02:50:10;;;;;;;5.60;2.25;;;1.00;99.90;;;;;;6216645;23;20017;-86
2022/03/06 02:52:35;;;;;;;6.05;2.22;;;1.00;99.90;;;;;;6189608;23;20012;-85
2022/03/06 02:55:02;;;;;;;4.03;2.30;;;3.20;99.90;;;;;;6216090;23;20517;-85
2022/03/06 02:57:28;;;;;;;3.65;2.55;;;1.00;99.90;;;;;;6215891;23;20346;-87
2022/03/06 02:59:53;;;;;;;5.68;2.60;;;1.00;99.90;;;;;;6216497;23;20021;-87
2022/03/06 03:02:19;;;;;;;4.93;2.65;;;1.00;99.90;;;;;;6216044;23;20451;-87
2022/03/06 03:04:45;;;;;;;5.90;3.00;;;1.40;99.90;;;;;;6216289;23;20009;-87
2022/03/06 03:07:11;;;;;;;8.05;3.35;;;1.00;99.90;;;;;;6164708;23;20340;-86
2022/03/06 03:09:37;;;;;;;5.57;2.55;;;1.00;99.90;;;;;;6216358;23;20013;-87
2022/03/06 03:12:03;;;;;;;5.88;2.58;;;1.60;99.90;;;;;;6189374;23;20351;-85
2022/03/06 03:14:33;;;;;;;4.45;2.67;;;1.00;99.90;;;;;;6216070;23;20017;-86
2022/03/06 03:17:00;;;;;;;9.93;2.78;;;1.60;99.90;;;;;;6216064;23;20017;-85
2022/03/06 03:19:26;;;;;;;6.97;3.20;;;0.80;99.90;;;;;;6216566;23;20079;-85
2022/03/06 03:21:53;;;;;;;4.40;2.80;;;0.80;99.90;;;;;;6164180;23;20025;-86
2022/03/06 03:24:18;;;;;;;5.32;2.78;;;1.10;99.90;;;;;;6216227;23;20020;-86
2022/03/06 03:26:44;;;;;;;5.22;2.25;;;1.60;99.90;;;;;;6164192;23;20086;-86
2022/03/06 03:29:10;;;;;;;3.30;2.00;;;1.30;99.90;;;;;;6189095;23;20016;-86
2022/03/06 03:31:35;;;;;;;3.80;2.28;;;1.60;99.90;;;;;;6216243;23;20017;-87
2022/03/06 03:34:01;;;;;;;5.43;2.88;;;0.70;99.90;;;;;;6215617;23;20009;-85
2022/03/06 03:36:27;;;;;;;4.60;2.20;;;0.60;99.90;;;;;;6216348;23;20025;-86
2022/03/06 03:38:53;;;;;;;7.43;2.75;;;0.60;99.90;;;;;;6189272;23;20340;-86
2022/03/06 03:41:18;;;;;;;4.75;2.08;;;1.00;99.90;;;;;;6216029;23;20052;-86
2022/03/06 03:43:44;;;;;;;5.68;2.97;;;1.30;99.90;;;;;;6188649;23;20325;-86
2022/03/06 03:46:10;;;;;;;6.95;2.33;;;0.50;99.90;;;;;;6189160;23;20013;-87
2022/03/06 03:48:36;;;;;;;7.32;2.25;;;-0.40;99.90;;;;;;6189092;23;20017;-86
2022/03/06 03:51:02;;;;;;;6.75;2.53;;;0.40;99.90;;;;;;6188811;23;20071;-87
2022/03/06 03:53:27;;;;;;;4.55;2.63;;;1.10;99.90;;;;;;6216037;23;20012;-86
2022/03/06 03:55:53;;;;;;;4.55;2.20;;;0.30;99.90;;;;;;6215757;23;20017;-87
2022/03/06 03:58:20;;;;;;;4.57;2.47;;;0.30;99.90;;;;;;6188585;23;20028;-87
2022/03/06 04:00:49;;;;;;;5.53;2.55;;;0.30;99.90;;;;;;6215572;23;20017;-88
2022/03/06 04:03:14;;;;;;;6.43;2.70;;;0.30;99.90;;;;;;6215710;23;20032;-87
2022/03/06 04:05:40;;;;;;;2.83;1.65;;;0.20;99.90;;;;;;6216086;23;20017;-86
2022/03/06 04:08:06;;;;;;;5.05;2.30;;;0.20;99.90;;;;;;6215921;23;20015;-87
2022/03/06 04:10:31;;;;;;;3.35;2.08;;;0.60;99.90;;;;;;6215805;23;20051;-87
2022/03/06 04:12:57;;;;;;;5.60;2.20;;;0.10;99.90;;;;;;6215803;23;20023;-85
2022/03/06 04:15:23;;;;;;;5.35;2.17;;;0.20;99.90;;;;;;6189281;23;20467;-87
2022/03/06 04:17:49;;;;;;;4.18;2.05;;;1.10;99.90;;;;;;6215299;23;20081;-86
2022/03/06 04:20:15;;;;;;;3.10;1.80;;;0.10;99.90;;;;;;6215682;23;20020;-86
2022/03/06 04:22:40;;;;;;;9.70;2.42;;;0.00;99.90;;;;;;6189193;23;20012;-87
2022/03/06 04:25:06;;;;;;;7.78;2.78;;;0.10;99.90;;;;;;6215348;23;20059;-87
2022/03/06 04:27:32;;;;;;;4.32;2.28;;;0.10;99.90;;;;;;6215100;23;20031;-85
2022/03/06 04:29:58;;;;;;;4.38;2.00;;;0.10;99.90;;;;;;6188790;23;20012;-86
2022/03/06 04:32:23;;;;;;;4.07;1.95;;;-0.30;99.90;;;;;;6189117;23;20490;-87
2022/03/06 04:34:49;;;;;;;2.70;1.65;;;-0.10;99.90;;;;;;6188716;23;20035;-86
2022/03/06 04:37:15;;;;;;;4.47;1.52;;;0.40;99.90;;;;;;6215548;23;20017;-86
2022/03/06 04:39:41;;;;;;;3.80;1.73;;;-0.20;99.90;;;;;;6215546;23;20013;-86
2022/03/06 04:42:06;;;;;;;3.38;1.90;;;0.20;99.90;;;;;;6215360;23;20020;-87
2022/03/06 04:44:32;;;;;;;4.97;1.77;;;-0.40;99.90;;;;;;6215454;23;20035;-86
2022/03/06 04:46:58;;;;;;;5.45;1.77;;;0.10;99.90;;;;;;6215658;23;20036;-86
2022/03/06 04:49:24;;;;;;;4.05;2.03;;;-0.50;99.90;;;;;;6188691;23;20078;-87
2022/03/06 04:51:49;;;;;;;5.75;2.35;;;-0.50;99.90;;;;;;6215604;23;20016;-87
2022/03/06 04:54:15;;;;;;;3.67;1.65;;;-0.60;99.90;;;;;;6214941;23;20019;-87
2022/03/06 04:56:41;;;;;;;5.20;2.13;;;-1.10;99.90;;;;;;6215007;23;20112;-86
2022/03/06 04:59:07;;;;;;;6.03;2.28;;;-0.60;99.90;;;;;;6214885;23;20070;-87
2022/03/06 05:01:33;;;;;;;5.18;1.80;;;-0.70;99.90;;;;;;6215355;23;20371;-86
2022/03/06 05:04:01;;;;;;;5.55;2.13;;;0.00;99.90;;;;;;6214764;23;20055;-84
2022/03/06 05:06:27;;;;;;;4.35;1.88;;;-0.40;99.90;;;;;;6188407;23;20027;-87
2022/03/06 05:08:53;;;;;;;2.88;1.95;;;-0.70;99.90;;;;;;6188437;23;20021;-87
2022/03/06 05:11:19;;;;;;;3.13;1.70;;;-0.70;99.90;;;;;;6215445;23;20317;-87
2022/03/06 05:13:44;;;;;;;3.90;1.63;;;-0.20;99.90;;;;;;6214845;23;20444;-85
2022/03/06 05:16:10;;;;;;;4.18;1.52;;;-0.90;99.90;;;;;;6188425;23;20017;-87
2022/03/06 05:18:36;;;;;;;2.95;1.40;;;-0.90;99.90;;;;;;6214890;23;20072;-87
2022/03/06 05:21:02;;;;;;;3.85;1.83;;;-0.90;99.90;;;;;;6214829;23;20051;-87
2022/03/06 05:23:28;;;;;;;3.67;2.08;;;-0.50;99.90;;;;;;6215094;23;20013;-86
2022/03/06 05:25:54;;;;;;;4.60;1.50;;;-0.90;99.90;;;;;;6215303;23;20387;-86
2022/03/06 05:28:21;;;;;;;4.28;1.92;;;-0.90;99.90;;;;;;6214602;23;20012;-87
2022/03/06 05:30:46;;;;;;;4.35;1.85;;;-1.00;99.90;;;;;;6215027;23;20339;-87
2022/03/06 05:33:12;;;;;;;3.83;1.88;;;-1.00;99.90;;;;;;6214573;23;20016;-85
2022/03/06 05:35:38;;;;;;;2.53;1.38;;;-1.00;99.90;;;;;;6215065;23;20013;-87
2022/03/06 05:38:05;;;;;;;4.03;1.65;;;-0.90;99.90;;;;;;6215188;23;20091;-85
2022/03/06 05:40:31;;;;;;;2.97;1.30;;;-1.10;99.90;;;;;;6215136;23;20039;-84
2022/03/06 05:42:57;;;;;;;3.50;2.17;;;-1.10;99.90;;;;;;6187896;23;20021;-86
2022/03/06 05:45:23;;;;;;;4.68;2.03;;;-1.10;99.90;;;;;;6214923;23;20024;-85
2022/03/06 05:47:48;;;;;;;5.28;1.80;;;-1.10;99.90;;;;;;6215013;23;20491;-83
2022/03/06 05:50:14;;;;;;;3.38;1.83;;;-1.10;99.90;;;;;;6215174;23;20043;-85
2022/03/06 05:52:40;;;;;;;2.67;1.73;;;-1.10;99.90;;;;;;6214794;23;20017;-81
2022/03/06 05:55:06;;;;;;;4.20;1.98;;;-1.00;99.90;;;;;;6214671;23;20096;-81
2022/03/06 05:57:32;;;;;;;3.13;1.95;;;-1.00;99.90;;;;;;6214427;23;20343;-83
2022/03/06 05:59:58;;;;;;;5.05;2.00;;;-1.10;99.90;;;;;;6215008;23;20063;-81
2022/03/06 06:02:24;;;;;;;3.15;1.67;;;-1.20;99.90;;;;;;6214897;23;20043;-84
2022/03/06 06:04:50;;;;;;;3.45;2.00;;;-1.10;99.90;;;;;;6214404;23;20020;-85
2022/03/06 06:07:16;;;;;;;4.55;1.75;;;-1.10;99.90;;;;;;6214390;23;20013;-87
2022/03/06 06:09:41;;;;;;;4.60;1.85;;;-1.10;99.90;;;;;;6214941;23;20066;-86
2022/03/06 06:12:08;;;;;;;3.67;1.83;;;-1.20;99.90;;;;;;6163019;23;20455;-86
2022/03/06 06:14:34;;;;;;;6.20;2.03;;;-1.20;99.90;;;;;;6216270;23;20028;-86
2022/03/06 06:16:59;;;;;;;4.00;1.58;;;-0.80;99.90;;;;;;6216457;23;20017;-86
2022/03/06 06:19:25;;;;;;;1.58;1.35;;;-1.20;99.90;;;;;;6190088;23;20335;-86
2022/03/06 06:21:51;;;;;;;2.33;1.17;;;-0.10;99.90;;;;;;6216715;23;20075;-86
2022/03/06 06:24:17;;;;;;;2.13;1.23;;;-1.30;99.90;;;;;;6216813;23;20031;-87
2022/03/06 06:26:45;;;;;;;1.88;0.93;;;-1.40;99.90;;;;;;6216235;23;20025;-87
2022/03/06 06:29:12;;;;;;;4.07;1.00;;;-1.40;99.90;;;;;;6190162;23;20378;-87
2022/03/06 06:31:38;;;;;;;1.65;1.10;;;-1.40;99.90;;;;;;6216868;23;20017;-87
2022/03/06 06:34:04;;;;;;;1.92;1.05;;;-1.30;99.90;;;;;;6216658;23;20344;-86
2022/03/06 06:36:29;;;;;;;3.08;1.17;;;-1.30;99.90;;;;;;6216871;23;20025;-86
2022/03/06 06:38:55;;;;;;;1.52;1.00;;;-1.30;99.90;;;;;;6190111;23;20019;-87
2022/03/06 06:41:21;;;;;;;1.85;1.20;;;-1.30;99.90;;;;;;6216775;23;20023;-87
2022/03/06 06:43:47;;;;;;;1.42;0.90;;;-1.30;99.90;;;;;;6190123;23;20327;-86
2022/03/06 06:46:12;;;;;;;3.70;1.10;;;-1.20;99.90;;;;;;6189359;23;20099;-86
2022/03/06 06:48:38;;;;;;;1.42;1.00;;;-1.10;99.90;;;;;;6216599;23;20449;-86
2022/03/06 06:51:08;;;;;;;2.03;0.98;;;-1.00;99.90;;;;;;6216739;23;20560;-85
2022/03/06 06:53:34;;;;;;;1.48;0.88;;;-0.90;99.90;;;;;;6189680;23;20351;-84
2022/03/06 06:55:59;;;;;;;1.27;0.80;;;-0.90;99.90;;;;;;6189400;23;20020;-86
2022/03/06 06:58:25;;;;;;;3.15;1.10;;;-0.80;99.90;;;;;;6216106;23;20066;-86
2022/03/06 07:00:51;;;;;;;1.80;1.10;;;-0.70;99.90;;;;;;6216276;23;20076;-87
2022/03/06 07:03:17;;;;;;;3.92;1.15;;;-0.60;99.90;;;;;;6216459;23;20020;-87
2022/03/06 07:05:44;;;;;;;1.25;0.80;;;-0.60;99.90;;;;;;6189627;23;20012;-85
2022/03/06 07:08:11;;;;;;;2.55;0.90;;;-0.50;99.90;;;;;;6216533;23;20013;-86
2022/03/06 07:10:36;;;;;;;1.35;0.73;;;-0.50;99.90;;;;;;6189121;23;20466;-87
2022/03/06 07:13:02;;;;;;;2.65;0.80;;;0.10;99.90;;;;;;6189328;23;20017;-87
2022/03/06 07:15:29;;;;;;;2.67;0.80;;;-0.40;99.90;;;;;;6216410;23;20013;-86
2022/03/06 07:17:59;;;;;;;1.48;0.80;;;-0.40;99.90;;;;;;6216138;23;20013;-87
2022/03/06 07:20:26;;;;;;;1.90;1.00;;;-0.30;99.90;;;;;;6216244;23;20055;-86
2022/03/06 07:22:51;;;;;;;1.42;0.82;;;-0.40;99.90;;;;;;6216312;23;20092;-89
2022/03/06 07:25:20;;;;;;;4.82;1.25;;;-0.30;99.90;;;;;;6215861;23;20082;-87
2022/03/06 07:27:47;;;;;;;1.52;0.75;;;-0.20;99.90;;;;;;6187941;23;20092;-89
2022/03/06 07:33:41;;;;;;;1.08;0.80;;;0.00;99.90;;;;;;6036384;23;20465;-86
2022/03/06 12:34:00;;;;;;;1.85;1.10;;;7.20;99.90;;;;;;6228583;22;20024;-86
2022/03/06 12:50:36;;;;;;;3.20;1.08;;;7.30;99.90;;;;;;6237687;22;20089;-82
2022/03/06 12:53:48;;;;;;;2.80;1.00;;;7.50;99.90;;;;;;6064524;23;20133;-83
2022/03/06 13:04:54;;;;;;;3.80;0.95;;;7.70;99.90;;;;;;6244872;22;20027;-83
2022/03/06 13:10:38;;;;;;;1.67;0.80;;;7.50;99.90;;;;;;6214280;23;20028;-84
2022/03/06 13:44:04;;;;;;;;;;;;;;;;;;;;;
2022/03/06 13:47:35;;;;;;;2.40;1.20;;;6.60;99.90;;;;;;6097067;23;20032;-83
2022/03/06 13:56:09;;;;;;;2.90;1.33;;;7.60;99.90;;;;;;6213170;23;20075;-82
2022/03/06 14:20:11;;;;;;;4.18;1.17;;;7.70;99.90;;;;;;6224234;22;20028;-85
2022/03/06 14:25:49;;;;;;;2.30;1.52;;;7.90;99.90;;;;;;6273453;22;20020;-82
2022/03/06 14:32:04;;;;;;;3.35;1.40;;;7.90;99.90;;;;;;6256255;22;20059;-84
2022/03/06 14:35:03;;;;;;;1.45;1.00;;;8.10;99.90;;;;;;6218164;23;20019;-85
2022/03/06 14:37:52;;;;;;;4.80;1.50;;;8.00;99.90;;;;;;6237713;22;20027;-84
2022/03/06 14:51:10;;;;;;;2.97;1.30;;;7.40;99.90;;;;;;6184096;23;20264;-84
2022/03/06 16:25:36;;;;;;;3.58;1.10;;;6.10;99.90;;;;;;6186088;23;20025;-87
2022/03/06 16:40:01;;;;;;;9.55;2.95;;;6.10;99.90;;;;;;6090484;23;20582;-85
2022/03/06 16:42:32;;;;;;;4.72;2.10;;;5.80;99.90;;;;;;6064763;23;20022;-86
2022/03/06 16:48:47;;;;;;;2.42;1.45;;;6.00;99.90;;;;;;6065059;23;20482;-86
2022/03/06 16:51:26;;;;;;;4.82;1.50;;;5.60;99.90;;;;;;6041063;23;20029;-85
2022/03/06 16:53:55;;;;;;;1.85;1.30;;;6.10;99.90;;;;;;6017352;23;20023;-85
2022/03/06 16:56:36;;;;;;;2.10;1.00;;;5.50;99.90;;;;;;6017118;23;20019;-86
2022/03/06 17:03:12;;;;;;;2.63;1.10;;;5.40;99.90;;;;;;6241525;22;20032;-87
2022/03/06 17:13:03;;;;;;;4.25;1.42;;;5.20;99.90;;;;;;6214726;23;20024;-86
2022/03/06 17:19:44;;;;;;;;;;;;;;;;;;;;;
2022/03/06 17:22:13;;;;;;;5.75;1.52;;;5.10;99.90;;;;;;6177802;23;20447;-84
2022/03/06 18:57:35;;;;;;;3.37;1.57;;;4.40;99.90;;;;;;6175860;23;20185;-88
2022/03/06 19:01:11;;;;;;;2.70;1.25;;;4.40;99.90;;;;;;6273825;22;20054;-88
2022/03/06 19:07:56;;;;;;;2.65;0.90;;;4.30;99.90;;;;;;6100490;23;20022;-86
2022/03/06 19:19:26;;;;;;;5.38;1.23;;;4.20;99.90;;;;;;6139264;23;20040;-87
2022/03/06 19:21:52;;;;;;;4.10;1.27;;;4.20;99.90;;;;;;6175059;22;20024;-86
2022/03/06 19:27:20;;;;;;;4.82;1.45;;;4.30;99.90;;;;;;6265914;22;20085;-87
2022/03/06 19:32:48;;;;;;;2.15;1.25;;;4.30;99.90;;;;;;6275906;22;20354;-86
2022/03/06 19:36:03;;;;;;;2.35;0.77;;;4.20;99.90;;;;;;6248603;22;20030;-85
2022/03/06 19:40:07;;;;;;;;;;;;;;;;;;;;;
2022/03/06 19:43:18;;;;;;;4.93;0.63;;;4.20;99.90;;;;;;6258363;22;20047;-86
2022/03/06 19:57:38;;;;;;;1.58;0.63;;;4.60;99.90;;;;;;6153071;23;20021;-85
2022/03/06 20:00:13;;;;;;;1.73;0.60;;;5.10;99.90;;;;;;6128526;23;20092;-86
2022/03/06 20:02:39;;;;;;;1.05;0.47;;;4.20;99.90;;;;;;6153056;23;20056;-86
2022/03/06 20:05:07;;;;;;;1.60;0.60;;;3.90;99.90;;;;;;6152062;23;20017;-86
2022/03/06 20:07:34;;;;;;;0.93;0.40;;;4.10;99.90;;;;;;6128546;23;20021;-86
2022/03/06 20:10:00;;;;;;;0.52;0.32;;;4.80;99.90;;;;;;6127764;23;20025;-85
2022/03/06 20:12:26;;;;;;;0.50;0.40;;;4.80;99.90;;;;;;6128729;23;20018;-86
2022/03/06 20:15:00;;;;;;;0.40;0.40;;;4.80;99.90;;;;;;6152780;23;20081;-86
2022/03/06 20:17:26;;;;;;;1.95;0.45;;;4.60;99.90;;;;;;6128049;23;20022;-87
2022/03/06 20:20:10;;;;;;;1.10;0.45;;;5.00;99.90;;;;;;6128194;23;20010;-85
2022/03/06 20:22:42;;;;;;;3.88;0.60;;;4.20;99.90;;;;;;6129024;23;20022;-86
2022/03/06 20:25:12;;;;;;;1.30;1.08;;;4.60;99.90;;;;;;6218619;23;20055;-87
2022/03/06 20:27:52;;;;;;;1.35;0.50;;;3.90;99.90;;;;;;6194680;23;20476;-86
2022/03/06 20:30:24;;;;;;;2.03;0.40;;;4.30;99.90;;;;;;6218442;23;20046;-85
2022/03/06 20:32:58;;;;;;;1.13;0.40;;;4.70;99.90;;;;;;6245497;23;20091;-86
2022/03/06 20:35:36;;;;;;;3.13;0.50;;;2.70;99.90;;;;;;6208299;23;20389;-85
2022/03/06 20:38:36;;;;;;;1.88;0.73;;;4.70;99.90;;;;;;6218114;23;20450;-87
2022/03/06 20:41:13;;;;;;;1.00;0.30;;;4.30;99.90;;;;;;6245599;23;20016;-87
2022/03/06 20:43:43;;;;;;;2.38;0.70;;;4.20;99.90;;;;;;6190857;23;20111;-86
2022/03/06 20:46:12;;;;;;;3.03;0.60;;;3.60;99.90;;;;;;6245147;23;20018;-87
2022/03/06 20:48:40;;;;;;;0.65;0.40;;;4.20;99.90;;;;;;6219188;23;20012;-87
2022/03/06 20:51:11;;;;;;;0.65;0.50;;;4.10;99.90;;;;;;6218139;23;20016;-86
2022/03/06 20:53:43;;;;;;;2.20;0.30;;;4.10;99.90;;;;;;6194933;23;20023;-86
2022/03/06 20:56:11;;;;;;;1.08;0.38;;;4.40;99.90;;;;;;6218263;23;20090;-88
2022/03/06 20:58:37;;;;;;;0.70;0.30;;;4.10;99.90;;;;;;6217637;23;20020;-85
2022/03/06 21:01:06;;;;;;;0.35;0.30;;;4.10;99.90;;;;;;6218321;23;20027;-86
2022/03/06 21:03:44;;;;;;;2.20;0.40;;;4.00;99.90;;;;;;6218601;23;20170;-86
2022/03/06 21:06:23;;;;;;;1.73;0.60;;;4.90;99.90;;;;;;6218156;23;20020;-86
2022/03/06 21:08:49;;;;;;;2.13;0.40;;;4.90;99.90;;;;;;6155017;23;20092;-84
2022/03/06 21:11:14;;;;;;;1.98;0.50;;;3.70;99.90;;;;;;6157072;23;20055;-87
2022/03/06 21:13:52;;;;;;;2.60;0.50;;;4.70;99.90;;;;;;6182194;23;20364;-87
2022/03/06 21:16:18;;;;;;;0.77;0.40;;;3.60;99.90;;;;;;6155565;23;20021;-87
2022/03/06 21:18:53;;;;;;;1.75;0.40;;;3.90;99.90;;;;;;6157697;23;20177;-87
2022/03/06 21:22:14;;;;;;;0.90;0.50;;;3.90;99.90;;;;;;6132404;23;20573;-87
2022/03/06 21:25:52;;;;;;;;;;;;;;;;;;;;;
2022/03/06 21:28:28;;;;;;;1.40;0.50;;;3.80;99.90;;;;;;5921413;24;20055;-86
2022/03/06 21:31:03;;;;;;;1.67;0.50;;;3.70;99.90;;;;;;5901563;24;20043;-85
2022/03/06 21:34:02;;;;;;;1.17;0.55;;;3.70;99.90;;;;;;5900885;24;20017;-86
2022/03/06 21:36:39;;;;;;;0.57;0.40;;;3.40;99.90;;;;;;5950379;24;20028;-86
2022/03/06 21:40:02;;;;;;;1.55;0.43;;;3.00;99.90;;;;;;6019326;22;20075;-87
2022/03/06 21:46:20;;;;;;;0.47;0.32;;;2.90;99.90;;;;;;6239052;23;20039;-87
2022/03/06 21:49:38;;;;;;;;;;;;;;;;;;;;;
2022/03/06 21:53:07;;;;;;;1.90;0.50;;;3.50;99.90;;;;;;6066469;23;20465;-88
2022/03/06 21:55:52;;;;;;;0.55;0.30;;;2.90;99.90;;;;;;5976048;24;20026;-85
2022/03/06 21:59:33;;;;;;;0.57;0.30;;;2.90;99.90;;;;;;5979508;24;20028;-87
2022/03/06 22:02:31;;;;;;;0.75;0.38;;;2.40;99.90;;;;;;5955905;24;20024;-86
2022/03/06 22:05:30;;;;;;;1.85;0.35;;;3.10;99.90;;;;;;5950325;24;20032;-87
2022/03/06 22:08:09;;;;;;;1.20;0.30;;;2.60;99.90;;;;;;5951258;24;20027;-87
2022/03/06 22:10:51;;;;;;;0.80;0.40;;;3.10;99.90;;;;;;5951718;24;20459;-86
2022/03/06 22:13:30;;;;;;;1.23;0.40;;;3.00;99.90;;;;;;5951976;24;20056;-88
2022/03/06 22:16:31;;;;;;;2.53;0.40;;;2.60;99.90;;;;;;5951585;24;20040;-87
2022/03/06 22:19:12;;;;;;;0.40;0.30;;;2.80;99.90;;;;;;5951671;24;20108;-87
2022/03/06 22:22:04;;;;;;;1.70;0.40;;;2.30;99.90;;;;;;5951675;23;20024;-87
2022/03/06 22:25:12;;;;;;;1.13;0.40;;;2.20;99.90;;;;;;5951689;24;20118;-86
2022/03/06 22:27:43;;;;;;;1.67;0.40;;;2.10;99.90;;;;;;5924397;24;20009;-88
2022/03/06 22:30:14;;;;;;;1.42;0.50;;;1.90;99.90;;;;;;5979415;24;20028;-88
2022/03/06 22:32:57;;;;;;;1.20;0.40;;;1.80;99.90;;;;;;6011706;23;20068;-87
